Time;durP1;ratioP1;P1;durP2;ratioP2;P2;SDS_P1;SDS_P2;PMS_P1;PMS_P2;Temp;Humidity;BMP_temperature;BMP_pressure;BME280_temperature;BME280_humidity;BME280_pressure;Samples;Min_cycle;Max_cycle;Signal;HPM_P1;HPM_P2
2021/10/30 00:00:24;;;;;;;2.95;2.65;;;22.00;49.00;;;;;;1862589;77;21160;-10
2021/10/30 00:02:52;;;;;;;3.65;3.02;;;22.00;49.00;;;;;;1862643;77;21476;-10
2021/10/30 00:05:19;;;;;;;3.42;3.08;;;22.00;48.90;;;;;;1862582;77;21062;-10
2021/10/30 00:07:46;;;;;;;3.83;3.22;;;22.00;48.90;;;;;;1862546;77;21071;-10
2021/10/30 00:10:14;;;;;;;4.33;3.15;;;22.10;49.00;;;;;;1862579;77;21039;-10
2021/10/30 00:12:42;;;;;;;3.33;2.98;;;22.00;48.90;;;;;;1862562;77;21074;-10
2021/10/30 00:15:11;;;;;;;3.62;3.12;;;22.00;49.00;;;;;;1862609;77;21066;-11
2021/10/30 00:17:39;;;;;;;4.33;3.25;;;22.00;49.00;;;;;;1862607;77;21060;-11
2021/10/30 00:20:08;;;;;;;3.85;3.35;;;22.00;49.10;;;;;;1862618;77;21499;-11
2021/10/30 00:22:35;;;;;;;4.08;3.17;;;22.00;49.00;;;;;;1862510;76;21094;-11
2021/10/30 00:25:04;;;;;;;5.12;4.17;;;22.00;49.30;;;;;;1862688;77;21082;-10
2021/10/30 00:27:32;;;;;;;4.75;3.80;;;22.10;49.50;;;;;;1862567;77;21162;-10
2021/10/30 00:29:59;;;;;;;5.83;3.80;;;22.10;49.40;;;;;;1862634;77;21524;-10
2021/10/30 00:32:27;;;;;;;4.75;3.42;;;22.10;49.30;;;;;;1862594;76;21145;-10
2021/10/30 00:34:54;;;;;;;5.22;3.20;;;22.10;49.20;;;;;;1862551;77;21618;-10
2021/10/30 00:37:22;;;;;;;4.05;3.15;;;22.10;49.10;;;;;;1862476;77;21543;-10
2021/10/30 00:39:49;;;;;;;3.65;3.17;;;22.10;49.10;;;;;;1862347;77;21525;-10
2021/10/30 00:42:17;;;;;;;3.35;3.05;;;22.20;49.20;;;;;;1862429;77;21075;-10
2021/10/30 00:44:45;;;;;;;3.67;3.20;;;22.20;49.10;;;;;;1862404;77;21594;-10
2021/10/30 00:47:14;;;;;;;3.62;3.17;;;22.20;49.10;;;;;;1862383;77;21047;-10
2021/10/30 00:49:43;;;;;;;3.30;3.00;;;22.20;49.10;;;;;;1862372;77;21074;-10
2021/10/30 00:52:11;;;;;;;3.17;2.87;;;22.20;49.10;;;;;;1862120;77;21519;-10
2021/10/30 00:54:38;;;;;;;3.12;2.83;;;22.20;49.00;;;;;;1862334;77;21577;-10
2021/10/30 00:57:06;;;;;;;3.15;2.85;;;22.20;49.00;;;;;;1862461;77;21523;-10
2021/10/30 00:59:34;;;;;;;3.00;2.80;;;22.20;49.00;;;;;;1862398;77;21078;-10
2021/10/30 01:02:02;;;;;;;4.10;3.12;;;22.20;49.00;;;;;;1862480;77;21488;-10
2021/10/30 01:04:30;;;;;;;3.58;3.27;;;22.20;49.00;;;;;;1862348;77;21074;-10
2021/10/30 01:06:59;;;;;;;3.62;3.05;;;22.30;49.10;;;;;;1862342;77;21133;-10
2021/10/30 01:09:26;;;;;;;3.17;2.83;;;22.20;49.10;;;;;;1862352;77;21140;-10
2021/10/30 01:11:53;;;;;;;3.20;2.90;;;22.30;49.10;;;;;;1862351;77;21032;-10
2021/10/30 01:14:21;;;;;;;3.45;3.15;;;22.30;49.10;;;;;;1862352;77;21540;-10
2021/10/30 01:16:51;;;;;;;3.40;3.10;;;22.30;49.10;;;;;;1862312;77;21546;-10
2021/10/30 01:19:21;;;;;;;3.60;3.27;;;22.30;49.00;;;;;;1862383;77;21097;-10
2021/10/30 01:21:49;;;;;;;4.05;3.20;;;22.30;49.60;;;;;;1862299;76;21162;-10
2021/10/30 01:24:17;;;;;;;3.50;3.20;;;22.30;49.10;;;;;;1862362;77;21590;-10
2021/10/30 01:26:44;;;;;;;4.17;3.05;;;22.30;49.10;;;;;;1862352;77;21531;-10
2021/10/30 01:29:12;;;;;;;3.30;3.00;;;22.30;49.60;;;;;;1862316;77;21137;-10
2021/10/30 01:31:39;;;;;;;4.05;3.30;;;22.30;49.00;;;;;;1862294;77;21062;-10
2021/10/30 01:34:08;;;;;;;3.37;3.08;;;22.30;49.20;;;;;;1862272;77;21612;-10
2021/10/30 01:36:35;;;;;;;3.08;2.77;;;22.40;49.10;;;;;;1862330;77;21609;-10
2021/10/30 01:39:05;;;;;;;3.45;3.15;;;22.40;49.10;;;;;;1851711;77;21075;-10
2021/10/30 01:41:33;;;;;;;3.35;2.72;;;22.40;49.00;;;;;;1849459;77;21047;-10
2021/10/30 01:44:01;;;;;;;3.22;2.92;;;22.40;49.10;;;;;;1850050;77;21052;-10
2021/10/30 01:46:28;;;;;;;3.62;3.20;;;22.40;49.10;;;;;;1850157;77;21574;-10
2021/10/30 01:48:56;;;;;;;3.20;2.90;;;22.40;49.10;;;;;;1850061;77;21547;-10
2021/10/30 01:51:23;;;;;;;3.55;3.12;;;22.40;49.10;;;;;;1850069;77;21043;-10
2021/10/30 01:53:51;;;;;;;2.98;2.75;;;22.40;49.10;;;;;;1850081;77;21634;-10
2021/10/30 01:56:19;;;;;;;3.77;3.37;;;22.40;49.10;;;;;;1850024;77;21630;-10
2021/10/30 01:58:46;;;;;;;4.00;3.30;;;22.40;49.10;;;;;;1850032;77;21524;-10
2021/10/30 02:01:13;;;;;;;3.30;2.95;;;22.50;49.10;;;;;;1850063;77;21089;-10
2021/10/30 02:03:41;;;;;;;3.27;2.90;;;22.40;49.00;;;;;;1850067;77;21016;-10
2021/10/30 02:06:08;;;;;;;3.40;3.10;;;22.50;49.00;;;;;;1850082;77;21129;-10
2021/10/30 02:08:36;;;;;;;3.58;3.27;;;22.50;49.00;;;;;;1850048;77;21101;-10
2021/10/30 02:11:04;;;;;;;3.65;3.33;;;22.50;49.00;;;;;;1850052;77;21067;-10
2021/10/30 02:13:32;;;;;;;3.08;2.77;;;22.40;49.00;;;;;;1850028;77;21536;-10
2021/10/30 02:15:59;;;;;;;3.33;3.02;;;22.50;49.10;;;;;;1850037;77;21079;-10
2021/10/30 02:18:26;;;;;;;3.12;2.83;;;22.50;49.00;;;;;;1850022;77;21032;-10
2021/10/30 02:20:54;;;;;;;3.17;2.87;;;22.50;49.10;;;;;;1850059;77;21101;-10
2021/10/30 02:23:21;;;;;;;3.15;2.85;;;22.50;49.00;;;;;;1850027;76;21099;-10
2021/10/30 02:25:48;;;;;;;3.47;3.17;;;22.50;49.00;;;;;;1850023;76;21072;-10
2021/10/30 02:28:16;;;;;;;3.40;3.10;;;22.50;49.00;;;;;;1850043;77;21043;-10
2021/10/30 02:30:43;;;;;;;3.02;2.72;;;22.50;49.10;;;;;;1850170;77;21102;-10
2021/10/30 02:33:11;;;;;;;3.02;2.80;;;22.50;49.00;;;;;;1850195;77;21102;-10
2021/10/30 02:35:38;;;;;;;3.83;3.30;;;22.50;49.00;;;;;;1850139;77;21056;-10
2021/10/30 02:38:06;;;;;;;3.50;3.20;;;22.50;49.00;;;;;;1853982;77;21136;-10
2021/10/30 02:40:33;;;;;;;3.02;2.70;;;22.50;48.90;;;;;;1865065;77;21074;-10
2021/10/30 02:43:01;;;;;;;3.62;3.30;;;22.50;48.90;;;;;;1865209;77;21538;-10
2021/10/30 02:45:28;;;;;;;3.20;2.90;;;22.50;48.90;;;;;;1865181;77;21527;-10
2021/10/30 02:47:56;;;;;;;4.22;3.35;;;22.50;48.90;;;;;;1865193;77;21495;-10
2021/10/30 02:50:24;;;;;;;3.10;2.83;;;22.50;48.80;;;;;;1865187;77;21515;-10
2021/10/30 02:52:52;;;;;;;3.62;3.27;;;22.50;48.90;;;;;;1865189;77;21071;-10
2021/10/30 02:55:20;;;;;;;3.47;3.17;;;22.50;48.90;;;;;;1865075;77;21581;-10
2021/10/30 02:57:48;;;;;;;4.03;3.20;;;22.60;49.00;;;;;;1865133;77;21523;-10
2021/10/30 03:00:16;;;;;;;3.45;2.92;;;22.50;48.90;;;;;;1865098;77;21102;-10
2021/10/30 03:02:44;;;;;;;3.40;3.00;;;22.50;48.90;;;;;;1865168;77;21523;-10
2021/10/30 03:05:12;;;;;;;3.58;3.27;;;22.60;48.90;;;;;;1865180;77;21116;-10
2021/10/30 03:07:39;;;;;;;3.67;3.12;;;22.60;49.00;;;;;;1865129;77;21563;-10
2021/10/30 03:10:08;;;;;;;3.40;3.10;;;22.60;48.90;;;;;;1865170;77;21526;-10
2021/10/30 03:12:35;;;;;;;3.47;3.17;;;22.60;49.00;;;;;;1865084;77;21224;-10
2021/10/30 03:15:04;;;;;;;4.05;3.35;;;22.60;49.00;;;;;;1865143;77;21597;-10
2021/10/30 03:17:31;;;;;;;3.12;2.83;;;22.60;49.10;;;;;;1865105;77;21078;-10
2021/10/30 03:19:59;;;;;;;3.90;3.50;;;22.60;49.10;;;;;;1865107;77;21651;-10
2021/10/30 03:22:26;;;;;;;3.80;3.40;;;22.60;49.10;;;;;;1865053;76;21209;-10
2021/10/30 03:24:54;;;;;;;3.20;2.90;;;22.60;49.20;;;;;;1865097;77;21066;-10
2021/10/30 03:27:23;;;;;;;3.35;3.02;;;22.60;49.20;;;;;;1865086;77;21103;-10
2021/10/30 03:29:50;;;;;;;3.15;2.85;;;22.60;49.30;;;;;;1865204;77;21535;-10
2021/10/30 03:32:17;;;;;;;2.98;2.77;;;22.60;49.30;;;;;;1865145;77;21078;-10
2021/10/30 03:34:45;;;;;;;4.08;2.95;;;22.60;49.30;;;;;;1865186;77;21586;-10
2021/10/30 03:37:12;;;;;;;3.75;3.30;;;22.60;49.30;;;;;;1865117;77;21130;-10
2021/10/30 03:39:40;;;;;;;3.30;3.00;;;22.60;49.30;;;;;;1865179;77;21078;-10
2021/10/30 03:42:08;;;;;;;4.10;3.25;;;22.60;49.40;;;;;;1865141;77;21519;-10
2021/10/30 03:44:38;;;;;;;3.85;3.27;;;22.60;49.30;;;;;;1865115;77;21102;-10
2021/10/30 03:47:06;;;;;;;3.52;3.10;;;22.60;49.40;;;;;;1865156;77;21532;-10
2021/10/30 03:49:34;;;;;;;3.37;3.08;;;22.60;49.50;;;;;;1865066;77;21099;-10
2021/10/30 03:52:01;;;;;;;3.65;3.00;;;22.60;49.50;;;;;;1865096;77;21173;-10
2021/10/30 03:54:29;;;;;;;3.15;2.92;;;22.60;49.50;;;;;;1865125;77;21563;-10
2021/10/30 03:56:56;;;;;;;3.42;3.12;;;22.70;49.50;;;;;;1865056;77;21103;-10
2021/10/30 03:59:24;;;;;;;3.47;2.80;;;22.70;49.50;;;;;;1865167;77;21054;-10
2021/10/30 04:01:52;;;;;;;3.60;3.30;;;22.70;49.50;;;;;;1865112;77;21500;-10
2021/10/30 04:04:19;;;;;;;3.62;3.10;;;22.70;49.50;;;;;;1865055;77;21544;-10
2021/10/30 04:06:47;;;;;;;3.77;3.10;;;22.70;49.50;;;;;;1865159;77;21530;-10
2021/10/30 04:09:14;;;;;;;4.22;3.17;;;22.70;49.50;;;;;;1865100;77;21104;-10
2021/10/30 04:11:42;;;;;;;3.75;3.20;;;22.70;50.00;;;;;;1865130;77;21145;-10
2021/10/30 04:14:09;;;;;;;3.55;3.25;;;22.70;49.50;;;;;;1865093;77;21207;-10
2021/10/30 04:16:36;;;;;;;3.42;3.12;;;22.70;49.50;;;;;;1865052;77;21498;-10
2021/10/30 04:19:04;;;;;;;3.42;3.12;;;22.70;49.50;;;;;;1865074;77;21076;-10
2021/10/30 04:21:32;;;;;;;3.80;3.10;;;22.70;49.50;;;;;;1865111;76;21063;-10
2021/10/30 04:23:59;;;;;;;3.30;3.00;;;22.70;49.30;;;;;;1865080;77;21095;-10
2021/10/30 04:26:27;;;;;;;3.35;3.05;;;22.70;49.20;;;;;;1865165;76;21566;-10
2021/10/30 04:28:55;;;;;;;3.22;2.92;;;22.70;49.20;;;;;;1865086;77;21075;-10
2021/10/30 04:31:25;;;;;;;3.40;3.10;;;22.70;49.20;;;;;;1865045;77;21504;-10
2021/10/30 04:33:58;;;;;;;3.72;3.42;;;22.80;49.20;;;;;;1864936;77;21087;-10
2021/10/30 04:36:26;;;;;;;4.28;3.17;;;22.70;49.20;;;;;;1864551;77;21173;-10
2021/10/30 04:38:53;;;;;;;4.10;3.25;;;22.70;49.20;;;;;;1862261;77;21185;-10
2021/10/30 04:41:21;;;;;;;3.55;2.85;;;22.70;49.30;;;;;;1850070;77;21121;-10
2021/10/30 04:43:49;;;;;;;3.60;3.27;;;22.80;49.30;;;;;;1850094;77;21078;-10
2021/10/30 04:46:18;;;;;;;3.80;3.50;;;22.80;49.00;;;;;;1850166;77;21628;-10
2021/10/30 04:48:45;;;;;;;4.28;3.60;;;22.70;49.30;;;;;;1850161;77;21932;-10
2021/10/30 04:51:13;;;;;;;3.58;3.27;;;22.80;49.30;;;;;;1850134;77;21063;-10
2021/10/30 04:53:42;;;;;;;3.50;3.20;;;22.80;49.30;;;;;;1850063;77;21484;-10
2021/10/30 04:56:09;;;;;;;3.10;2.75;;;22.80;49.30;;;;;;1850089;77;21015;-10
2021/10/30 04:58:43;;;;;;;3.47;3.10;;;22.80;49.20;;;;;;1850023;77;21464;-10
2021/10/30 05:01:06;;;;;;;4.03;2.90;;;22.80;49.00;;;;;;1848879;77;21157;-10
2021/10/30 05:03:33;;;;;;;3.58;3.27;;;22.80;48.90;;;;;;1850069;77;21129;-10
2021/10/30 05:06:01;;;;;;;4.22;3.10;;;22.90;48.90;;;;;;1850066;77;21602;-10
2021/10/30 05:08:29;;;;;;;3.25;2.95;;;22.80;48.90;;;;;;1850076;77;21547;-10
2021/10/30 05:10:56;;;;;;;3.33;3.02;;;22.90;49.10;;;;;;1850093;77;21524;-10
2021/10/30 05:13:23;;;;;;;3.95;3.12;;;22.90;49.00;;;;;;1850131;77;21555;-10
2021/10/30 05:15:51;;;;;;;3.60;3.30;;;22.80;49.00;;;;;;1850129;77;21595;-10
2021/10/30 05:18:18;;;;;;;3.72;3.12;;;22.90;48.90;;;;;;1850039;77;21133;-10
2021/10/30 05:20:46;;;;;;;3.55;3.25;;;22.90;48.90;;;;;;1850082;77;21071;-10
2021/10/30 05:23:13;;;;;;;3.33;3.02;;;22.90;48.80;;;;;;1850001;76;21103;-10
2021/10/30 05:25:41;;;;;;;3.33;2.90;;;22.90;48.70;;;;;;1850006;77;21578;-10
2021/10/30 05:28:08;;;;;;;3.50;3.20;;;22.90;48.60;;;;;;1850127;77;21603;-10
2021/10/30 05:30:35;;;;;;;3.37;3.05;;;22.90;48.60;;;;;;1850013;77;21102;-10
2021/10/30 05:33:03;;;;;;;3.45;3.15;;;22.90;48.50;;;;;;1850004;77;21039;-10
2021/10/30 05:35:30;;;;;;;3.30;3.00;;;22.90;48.40;;;;;;1850062;77;21133;-10
2021/10/30 05:37:58;;;;;;;3.33;3.02;;;22.90;48.40;;;;;;1850065;77;21591;-10
2021/10/30 05:40:26;;;;;;;3.33;3.02;;;22.90;48.40;;;;;;1857576;77;21551;-10
2021/10/30 05:42:53;;;;;;;3.50;3.20;;;23.00;48.40;;;;;;1862356;77;21500;-10
2021/10/30 05:45:21;;;;;;;4.15;3.10;;;22.90;48.30;;;;;;1862347;77;21136;-10
2021/10/30 05:47:49;;;;;;;3.83;3.25;;;23.00;48.30;;;;;;1862253;77;21543;-10
2021/10/30 05:50:16;;;;;;;3.58;3.22;;;23.00;48.20;;;;;;1862267;77;21582;-10
2021/10/30 05:52:44;;;;;;;3.67;3.17;;;23.00;48.20;;;;;;1862270;77;21527;-10
2021/10/30 05:55:11;;;;;;;6.10;3.60;;;23.00;48.20;;;;;;1862233;77;21039;-10
2021/10/30 05:57:39;;;;;;;4.35;3.62;;;23.00;48.50;;;;;;1862333;77;21023;-10
2021/10/30 06:00:07;;;;;;;4.58;3.77;;;23.00;48.20;;;;;;1862341;77;21593;-10
2021/10/30 06:02:35;;;;;;;4.78;4.05;;;23.10;48.20;;;;;;1862253;77;21097;-10
2021/10/30 06:05:02;;;;;;;5.65;3.98;;;23.00;48.20;;;;;;1862403;77;21132;-10
2021/10/30 06:07:30;;;;;;;6.15;4.08;;;23.00;48.10;;;;;;1862365;77;21047;-10
2021/10/30 06:09:58;;;;;;;5.35;3.65;;;23.00;48.10;;;;;;1862504;77;21071;-10
2021/10/30 06:12:26;;;;;;;6.35;4.40;;;23.00;48.20;;;;;;1862479;77;21101;-10
2021/10/30 06:14:54;;;;;;;8.58;4.42;;;23.00;48.30;;;;;;1862417;77;21496;-10
2021/10/30 06:17:22;;;;;;;8.58;5.17;;;23.00;48.70;;;;;;1862356;77;21043;-10
2021/10/30 06:19:49;;;;;;;6.45;4.15;;;23.00;48.80;;;;;;1862404;77;21063;-10
2021/10/30 06:22:17;;;;;;;5.75;4.62;;;23.10;48.30;;;;;;1862308;76;21191;-10
2021/10/30 06:24:45;;;;;;;5.28;4.50;;;23.10;47.80;;;;;;1862353;77;21499;-10
2021/10/30 06:27:12;;;;;;;4.72;3.65;;;23.10;47.50;;;;;;1862404;77;21019;-9
2021/10/30 06:29:40;;;;;;;5.03;4.00;;;23.10;47.20;;;;;;1862387;77;21586;-11
2021/10/30 06:32:07;;;;;;;3.87;3.45;;;23.10;47.00;;;;;;1862404;77;21609;-10
2021/10/30 06:34:35;;;;;;;3.75;3.37;;;23.10;46.70;;;;;;1862415;76;21516;-10
2021/10/30 06:37:02;;;;;;;5.00;3.90;;;23.10;46.50;;;;;;1862358;77;21402;-10
2021/10/30 06:39:30;;;;;;;3.92;3.52;;;23.10;46.30;;;;;;1862310;76;21503;-10
2021/10/30 06:41:57;;;;;;;3.75;3.35;;;23.10;46.10;;;;;;1862378;77;21110;-10
2021/10/30 06:44:25;;;;;;;3.72;3.30;;;23.10;46.00;;;;;;1862431;77;21566;-10
2021/10/30 06:46:53;;;;;;;3.80;3.20;;;23.00;45.90;;;;;;1862431;76;21582;-10
2021/10/30 06:49:24;;;;;;;3.90;3.50;;;23.00;45.70;;;;;;1862362;77;21078;-10
2021/10/30 06:51:52;;;;;;;3.83;3.45;;;22.90;45.40;;;;;;1862286;77;21066;-10
2021/10/30 06:54:20;;;;;;;4.35;3.85;;;22.90;45.60;;;;;;1862395;77;21152;-10
2021/10/30 06:56:48;;;;;;;3.52;3.22;;;22.90;45.60;;;;;;1862339;77;21598;-10
2021/10/30 06:59:16;;;;;;;3.30;3.00;;;22.90;45.60;;;;;;1862423;77;21033;-10
2021/10/30 07:01:43;;;;;;;3.58;3.27;;;22.90;45.50;;;;;;1862400;77;21577;-10
2021/10/30 07:04:12;;;;;;;3.35;3.05;;;22.90;45.60;;;;;;1862375;77;21063;-10
2021/10/30 07:06:40;;;;;;;3.02;2.77;;;22.80;45.60;;;;;;1834170;77;21051;-10
2021/10/30 07:09:07;;;;;;;3.77;3.33;;;22.80;45.60;;;;;;1862394;77;21062;-10
2021/10/30 07:11:35;;;;;;;3.47;3.17;;;22.80;45.60;;;;;;1862355;77;21594;-10
2021/10/30 07:14:03;;;;;;;3.30;3.00;;;22.80;45.70;;;;;;1862439;77;21560;-10
2021/10/30 07:16:32;;;;;;;3.40;3.10;;;22.70;45.70;;;;;;1862220;77;21476;-10
2021/10/30 07:18:59;;;;;;;3.30;3.00;;;22.70;45.80;;;;;;1862358;77;21074;-10
2021/10/30 07:21:27;;;;;;;2.67;2.47;;;22.70;45.90;;;;;;1862380;77;21113;-10
2021/10/30 07:23:55;;;;;;;3.33;3.02;;;22.60;45.90;;;;;;1862331;76;21539;-10
2021/10/30 07:26:23;;;;;;;3.62;3.02;;;22.60;46.00;;;;;;1862253;77;21058;-10
2021/10/30 07:28:50;;;;;;;3.00;2.70;;;22.60;46.10;;;;;;1862251;77;21586;-10
2021/10/30 07:31:18;;;;;;;3.30;2.87;;;22.60;46.20;;;;;;1862366;77;21074;-10
2021/10/30 07:33:46;;;;;;;2.80;2.58;;;22.60;46.30;;;;;;1862488;77;21523;-10
2021/10/30 07:36:13;;;;;;;2.45;2.25;;;22.60;46.40;;;;;;1862412;77;21590;-10
2021/10/30 07:38:41;;;;;;;2.60;2.40;;;22.60;46.40;;;;;;1862418;77;21594;-10
2021/10/30 07:41:09;;;;;;;2.70;2.50;;;22.50;46.50;;;;;;1862315;76;21571;-10
2021/10/30 07:43:36;;;;;;;2.72;2.52;;;22.50;46.60;;;;;;1862409;77;21078;-10
2021/10/30 07:46:04;;;;;;;3.30;2.62;;;22.50;46.60;;;;;;1862375;77;21165;-10
2021/10/30 07:48:31;;;;;;;2.70;2.50;;;22.50;46.80;;;;;;1862351;77;21492;-10
2021/10/30 07:50:59;;;;;;;2.90;2.67;;;22.50;46.90;;;;;;1862435;77;21535;-10
2021/10/30 07:53:26;;;;;;;3.08;2.77;;;22.40;46.90;;;;;;1862467;77;21575;-10
2021/10/30 07:55:54;;;;;;;2.80;2.60;;;22.40;47.00;;;;;;1862308;77;21207;-10
2021/10/30 07:58:21;;;;;;;2.80;2.45;;;22.40;46.70;;;;;;1862355;77;21038;-10
2021/10/30 08:00:48;;;;;;;2.98;2.77;;;22.40;47.30;;;;;;1862440;77;21071;-11
2021/10/30 08:03:16;;;;;;;2.98;2.67;;;22.40;47.40;;;;;;1862364;77;21066;-10
2021/10/30 08:05:44;;;;;;;2.77;2.58;;;22.40;47.50;;;;;;1862298;77;21515;-10
2021/10/30 08:08:11;;;;;;;2.87;2.58;;;22.30;47.50;;;;;;1862355;77;21140;-10
2021/10/30 08:10:39;;;;;;;3.00;2.80;;;22.40;47.70;;;;;;1862270;77;21534;-10
2021/10/30 08:13:09;;;;;;;2.90;2.70;;;22.40;47.70;;;;;;1862368;77;21582;-10
2021/10/30 08:15:37;;;;;;;3.10;2.80;;;22.40;47.80;;;;;;1862442;77;21121;-10
2021/10/30 08:18:05;;;;;;;2.90;2.60;;;22.30;47.80;;;;;;1862415;77;21504;-10
2021/10/30 08:20:34;;;;;;;2.67;2.47;;;22.30;47.90;;;;;;1862337;77;21465;-10
2021/10/30 08:23:01;;;;;;;2.87;2.60;;;22.30;48.00;;;;;;1862285;76;21106;-10
2021/10/30 08:25:29;;;;;;;2.70;2.50;;;22.20;48.10;;;;;;1862336;77;21589;-10
2021/10/30 08:27:58;;;;;;;2.58;2.35;;;22.30;48.20;;;;;;1862311;77;21032;-9
2021/10/30 08:30:26;;;;;;;2.45;2.25;;;22.30;48.30;;;;;;1862331;77;21062;-10
2021/10/30 08:32:54;;;;;;;2.70;2.50;;;22.30;48.40;;;;;;1862360;77;21048;-9
2021/10/30 08:35:21;;;;;;;2.98;2.72;;;22.20;48.40;;;;;;1862294;77;21120;-10
2021/10/30 08:37:49;;;;;;;2.67;2.47;;;22.20;48.50;;;;;;1862327;77;21129;-10
2021/10/30 08:40:17;;;;;;;2.60;2.40;;;22.30;48.60;;;;;;1862316;77;21542;-10
2021/10/30 08:42:48;;;;;;;2.87;2.58;;;22.20;48.60;;;;;;1862390;77;21087;-10
2021/10/30 08:45:19;;;;;;;2.65;2.40;;;22.20;48.70;;;;;;1862326;77;21063;-10
2021/10/30 08:47:47;;;;;;;2.98;2.42;;;22.20;48.80;;;;;;1862472;77;21635;-10
2021/10/30 08:50:16;;;;;;;3.00;2.77;;;22.20;49.00;;;;;;1862351;77;21512;-10
2021/10/30 08:52:43;;;;;;;2.58;2.37;;;22.20;49.00;;;;;;1862282;77;21071;-10
2021/10/30 08:55:11;;;;;;;3.08;2.77;;;22.20;49.10;;;;;;1862317;77;21159;-10
2021/10/30 08:57:38;;;;;;;3.02;2.70;;;22.20;49.20;;;;;;1862402;77;21522;-10
2021/10/30 09:00:25;;;;;;;2.40;2.20;;;22.20;49.30;;;;;;1862321;77;21046;-10
2021/10/30 09:02:58;;;;;;;3.02;2.72;;;22.20;49.30;;;;;;1862341;76;21039;-9
2021/10/30 09:05:25;;;;;;;2.30;2.10;;;22.10;49.40;;;;;;1862319;76;21051;-11
2021/10/30 09:07:55;;;;;;;2.52;2.33;;;22.10;49.60;;;;;;1862318;77;21133;-9
2021/10/30 09:10:24;;;;;;;2.47;2.27;;;22.10;49.70;;;;;;1862334;77;21140;-11
2021/10/30 09:12:56;;;;;;;2.87;2.67;;;22.10;49.80;;;;;;1862347;77;21051;-11
2021/10/30 09:15:38;;;;;;;2.50;2.30;;;22.10;49.80;;;;;;1862312;77;21524;-11
2021/10/30 09:18:09;;;;;;;2.70;2.50;;;22.10;49.90;;;;;;1862404;77;21118;-11
2021/10/30 09:20:37;;;;;;;2.50;2.30;;;22.00;50.10;;;;;;1850157;77;21121;-11
2021/10/30 09:23:09;;;;;;;2.60;2.40;;;22.00;50.10;;;;;;1862328;76;21078;-11
2021/10/30 09:25:54;;;;;;;2.55;2.35;;;22.00;50.10;;;;;;1861716;77;21102;-11
2021/10/30 09:28:24;;;;;;;2.30;2.12;;;22.10;50.20;;;;;;1862106;77;21142;-10
2021/10/30 09:30:59;;;;;;;2.20;2.00;;;22.00;50.20;;;;;;1862667;77;21484;-10
2021/10/30 09:33:29;;;;;;;2.20;2.00;;;22.00;50.30;;;;;;1862346;77;21144;-10
2021/10/30 09:35:57;;;;;;;2.20;2.00;;;22.00;50.40;;;;;;1862290;77;21195;-10
2021/10/30 09:38:36;;;;;;;2.50;2.30;;;22.00;50.50;;;;;;1862328;77;21467;-10
2021/10/30 09:41:05;;;;;;;2.62;2.42;;;22.00;50.40;;;;;;1861398;76;21043;-11
2021/10/30 09:43:32;;;;;;;2.35;2.15;;;22.00;50.50;;;;;;1850127;77;21024;-10
2021/10/30 09:46:09;;;;;;;2.37;2.17;;;22.00;50.60;;;;;;1850200;77;21575;-10
2021/10/30 09:48:39;;;;;;;2.58;2.22;;;22.00;50.50;;;;;;1849829;77;21126;-10
2021/10/30 09:51:06;;;;;;;2.50;2.30;;;22.00;50.50;;;;;;1850018;77;21070;-10
2021/10/30 09:53:35;;;;;;;2.65;2.45;;;22.00;50.60;;;;;;1850160;77;21173;-10
2021/10/30 09:56:08;;;;;;;2.60;2.40;;;22.00;50.50;;;;;;1850158;77;21067;-10
2021/10/30 09:58:38;;;;;;;2.72;2.33;;;22.00;50.60;;;;;;1850120;77;21121;-10
2021/10/30 10:01:11;;;;;;;7.17;2.60;;;22.00;50.60;;;;;;1850184;77;21606;-10
2021/10/30 10:03:40;;;;;;;3.25;2.47;;;22.00;50.60;;;;;;1850152;77;21121;-10
2021/10/30 10:06:10;;;;;;;2.80;2.27;;;22.00;50.80;;;;;;1850245;77;21595;-10
2021/10/30 10:08:42;;;;;;;4.33;2.37;;;21.90;50.80;;;;;;1850175;77;21484;-10
2021/10/30 10:11:12;;;;;;;4.25;2.30;;;21.90;50.90;;;;;;1850155;77;21012;-10
2021/10/30 10:13:41;;;;;;;2.87;2.40;;;21.90;51.00;;;;;;1850127;77;21097;-10
2021/10/30 10:16:16;;;;;;;3.12;2.60;;;21.90;50.90;;;;;;1850264;77;21610;-10
2021/10/30 10:18:48;;;;;;;2.67;2.00;;;21.90;50.70;;;;;;1850169;77;21094;-10
2021/10/30 10:21:31;;;;;;;3.40;2.45;;;21.90;50.80;;;;;;1850337;77;21468;-10
2021/10/30 10:23:59;;;;;;;2.58;2.37;;;21.90;50.80;;;;;;1846431;77;21099;-10
2021/10/30 10:26:32;;;;;;;;;;;21.80;50.90;;;;;;1852928;77;21028;-10
2021/10/30 10:29:04;;;;;;;2.60;2.40;;;21.70;51.00;;;;;;1850084;77;20185;-10
2021/10/30 10:31:32;;;;;;;2.62;2.20;;;21.70;51.20;;;;;;1849582;77;21512;-10
2021/10/30 10:34:10;;;;;;;2.77;2.47;;;21.80;51.00;;;;;;1850155;77;21597;-10
2021/10/30 10:36:38;;;;;;;2.10;2.00;;;21.80;50.80;;;;;;1850108;77;21595;-10
2021/10/30 10:39:08;;;;;;;2.52;2.30;;;21.80;50.80;;;;;;1850078;77;21577;-11
2021/10/30 10:41:44;;;;;;;2.40;2.08;;;21.90;50.80;;;;;;1850020;77;21477;-11
2021/10/30 10:44:23;;;;;;;2.62;2.30;;;21.90;50.80;;;;;;1850114;77;21039;-10
2021/10/30 10:46:52;;;;;;;2.58;2.37;;;21.90;50.80;;;;;;1850167;77;21485;-9
2021/10/30 10:49:30;;;;;;;2.50;2.30;;;21.90;50.90;;;;;;1850055;77;21042;-10
2021/10/30 10:52:30;;;;;;;2.50;2.30;;;21.90;50.80;;;;;;1849422;77;21067;-10
2021/10/30 10:55:01;;;;;;;2.58;2.33;;;21.90;50.80;;;;;;1844662;77;21125;-10
2021/10/30 10:57:31;;;;;;;;;;;21.90;50.90;;;;;;1852908;77;21085;-10
2021/10/30 11:00:13;;;;;;;2.45;2.25;;;21.70;51.00;;;;;;1850159;77;20138;-10
2021/10/30 11:02:43;;;;;;;2.42;2.22;;;21.70;51.30;;;;;;1850114;77;21111;-10
2021/10/30 11:05:15;;;;;;;2.58;2.37;;;21.70;51.10;;;;;;1849790;77;21024;-9
2021/10/30 11:07:53;;;;;;;2.42;2.20;;;21.80;51.00;;;;;;1850297;77;21067;-9
2021/10/30 11:10:23;;;;;;;2.62;2.40;;;21.80;50.90;;;;;;1850160;77;21474;-9
2021/10/30 11:13:04;;;;;;;2.55;2.30;;;21.80;50.90;;;;;;1850102;77;21039;-9
2021/10/30 11:15:43;;;;;;;2.60;2.40;;;21.90;50.90;;;;;;1850234;77;21047;-9
2021/10/30 11:18:20;;;;;;;2.52;2.33;;;21.80;51.00;;;;;;1850158;77;21489;-10
2021/10/30 11:21:09;;;;;;;2.92;2.40;;;21.80;51.00;;;;;;1845763;77;21063;-10
2021/10/30 11:23:54;;;;;;;2.30;2.10;;;21.80;51.00;;;;;;1850093;76;21115;-10
2021/10/30 11:26:27;;;;;;;2.17;1.98;;;21.80;51.20;;;;;;1850124;77;21075;-10
2021/10/30 11:29:04;;;;;;;2.67;2.47;;;21.80;51.20;;;;;;1849791;77;21549;-10
2021/10/30 11:31:32;;;;;;;2.70;2.50;;;21.80;51.20;;;;;;1849965;77;21101;-10
2021/10/30 11:34:04;;;;;;;2.50;2.30;;;21.80;51.20;;;;;;1850147;77;21606;-11
2021/10/30 11:36:32;;;;;;;2.50;2.30;;;21.90;51.20;;;;;;1850087;77;21063;-10
2021/10/30 11:39:01;;;;;;;2.40;2.20;;;21.90;51.20;;;;;;1850025;77;21509;-10
2021/10/30 11:41:30;;;;;;;3.67;2.30;;;21.90;51.20;;;;;;1850149;77;21141;-10
2021/10/30 11:43:59;;;;;;;2.90;2.33;;;21.90;51.30;;;;;;1849374;77;21138;-10
2021/10/30 11:46:27;;;;;;;2.50;2.30;;;21.90;51.30;;;;;;1850096;77;21082;-10
2021/10/30 11:48:56;;;;;;;2.30;2.05;;;21.90;51.20;;;;;;1850092;77;21044;-10
2021/10/30 11:51:27;;;;;;;2.50;2.30;;;22.00;51.20;;;;;;1850126;77;21067;-10
2021/10/30 11:53:55;;;;;;;2.73;2.40;;;22.00;51.10;;;;;;1849835;77;21047;-10
2021/10/30 11:56:28;;;;;;;2.52;2.33;;;22.00;51.30;;;;;;1850114;77;21524;-10
2021/10/30 11:59:11;;;;;;;2.25;1.92;;;22.00;51.30;;;;;;1850038;77;21153;-10
2021/10/30 12:01:43;;;;;;;2.52;2.22;;;22.00;51.30;;;;;;1850120;77;21606;-10
2021/10/30 12:04:11;;;;;;;;;;;22.00;51.20;;;;;;1852905;77;21012;-10
2021/10/30 12:06:47;;;;;;;2.20;1.98;;;21.90;51.40;;;;;;1850143;77;20476;-10
2021/10/30 12:09:19;;;;;;;2.20;2.00;;;21.90;51.50;;;;;;1850072;77;21141;-10
2021/10/30 12:11:49;;;;;;;2.27;2.08;;;22.00;51.40;;;;;;1850265;77;21060;-10
2021/10/30 12:14:37;;;;;;;2.40;2.20;;;22.00;51.30;;;;;;1849304;77;21123;-10
2021/10/30 12:17:15;;;;;;;2.30;2.10;;;22.00;51.30;;;;;;1850086;77;21607;-10
2021/10/30 12:19:46;;;;;;;2.33;1.95;;;22.00;51.30;;;;;;1850065;77;21614;-9
2021/10/30 12:22:22;;;;;;;2.70;2.17;;;22.00;51.50;;;;;;1849494;76;21107;-9
2021/10/30 12:25:13;;;;;;;2.58;2.30;;;22.00;51.80;;;;;;1850139;77;21524;-9
2021/10/30 12:27:53;;;;;;;2.67;2.20;;;22.00;51.80;;;;;;1850081;77;21078;-10
2021/10/30 12:30:26;;;;;;;3.35;2.50;;;22.00;51.90;;;;;;1850070;77;21164;-10
2021/10/30 12:32:54;;;;;;;2.15;1.98;;;22.00;52.10;;;;;;1849883;77;21484;-10
2021/10/30 12:35:26;;;;;;;2.17;1.98;;;22.00;52.20;;;;;;1850080;77;21070;-10
2021/10/30 12:37:53;;;;;;;;;;;22.00;52.20;;;;;;1852829;77;21055;-10
2021/10/30 12:40:23;;;;;;;1.80;1.70;;;21.90;52.20;;;;;;1850139;77;20145;-10
2021/10/30 12:43:05;;;;;;;1.85;1.70;;;21.90;52.30;;;;;;1849985;77;21103;-10
2021/10/30 12:45:47;;;;;;;1.85;1.70;;;22.00;52.10;;;;;;1849747;77;21075;-10
2021/10/30 12:48:17;;;;;;;2.10;1.90;;;22.00;52.10;;;;;;1833730;77;21012;-10
2021/10/30 12:50:53;;;;;;;2.65;2.22;;;21.90;52.30;;;;;;1850084;77;21047;-10
2021/10/30 12:53:30;;;;;;;2.08;1.87;;;21.90;52.40;;;;;;1845857;77;21067;-10
2021/10/30 12:56:14;;;;;;;1.98;1.77;;;21.90;52.40;;;;;;1850175;77;21488;-10
2021/10/30 12:58:45;;;;;;;2.00;1.85;;;22.00;52.50;;;;;;1850070;77;21133;-10